sensor_id;sensor_type;location;lat;lon;timestamp;P1;durP1;ratioP1;P2;durP2;ratioP2
60370;SDS011;48550;40.588;49.684;2023-02-28T00:00:49;40.58;;;15.43;;
60370;SDS011;48550;40.588;49.684;2023-02-28T00:03:15;39.92;;;15.65;;
60370;SDS011;48550;40.588;49.684;2023-02-28T00:05:41;40.10;;;14.48;;
60370;SDS011;48550;40.588;49.684;2023-02-28T00:08:06;38.95;;;14.95;;
60370;SDS011;48550;40.588;49.684;2023-02-28T00:10:33;37.53;;;14.98;;
60370;SDS011;48550;40.588;49.684;2023-02-28T00:12:59;37.15;;;14.88;;
60370;SDS011;48550;40.588;49.684;2023-02-28T00:15:27;34.63;;;15.18;;
60370;SDS011;48550;40.588;49.684;2023-02-28T00:17:53;33.30;;;14.52;;
60370;SDS011;48550;40.588;49.684;2023-02-28T00:20:19;37.80;;;14.65;;
60370;SDS011;48550;40.588;49.684;2023-02-28T00:22:46;39.28;;;15.43;;
60370;SDS011;48550;40.588;49.684;2023-02-28T00:25:14;37.45;;;14.82;;
60370;SDS011;48550;40.588;49.684;2023-02-28T00:27:42;38.60;;;15.77;;
60370;SDS011;48550;40.588;49.684;2023-02-28T00:30:10;43.38;;;15.52;;
60370;SDS011;48550;40.588;49.684;2023-02-28T00:32:37;41.03;;;15.55;;
60370;SDS011;48550;40.588;49.684;2023-02-28T00:35:04;39.88;;;16.23;;
60370;SDS011;48550;40.588;49.684;2023-02-28T00:37:30;41.92;;;16.67;;
60370;SDS011;48550;40.588;49.684;2023-02-28T00:39:56;45.42;;;17.27;;
60370;SDS011;48550;40.588;49.684;2023-02-28T00:42:22;39.17;;;16.92;;
60370;SDS011;48550;40.588;49.684;2023-02-28T00:44:48;45.13;;;18.73;;
60370;SDS011;48550;40.588;49.684;2023-02-28T00:47:14;50.20;;;19.58;;
60370;SDS011;48550;40.588;49.684;2023-02-28T00:49:40;54.95;;;18.98;;
60370;SDS011;48550;40.588;49.684;2023-02-28T00:52:05;49.58;;;19.70;;
60370;SDS011;48550;40.588;49.684;2023-02-28T00:54:31;55.90;;;20.95;;
60370;SDS011;48550;40.588;49.684;2023-02-28T00:56:57;54.45;;;20.27;;
60370;SDS011;48550;40.588;49.684;2023-02-28T00:59:23;66.45;;;24.08;;
60370;SDS011;48550;40.588;49.684;2023-02-28T01:01:49;69.40;;;25.27;;
60370;SDS011;48550;40.588;49.684;2023-02-28T01:04:15;75.15;;;25.20;;
60370;SDS011;48550;40.588;49.684;2023-02-28T01:06:41;72.65;;;25.55;;
60370;SDS011;48550;40.588;49.684;2023-02-28T01:09:07;83.45;;;26.92;;
60370;SDS011;48550;40.588;49.684;2023-02-28T01:11:33;84.15;;;26.00;;
60370;SDS011;48550;40.588;49.684;2023-02-28T01:14:00;88.43;;;29.08;;
60370;SDS011;48550;40.588;49.684;2023-02-28T01:16:26;88.85;;;29.52;;
60370;SDS011;48550;40.588;49.684;2023-02-28T01:18:52;84.53;;;26.33;;
60370;SDS011;48550;40.588;49.684;2023-02-28T01:21:18;90.00;;;27.40;;
60370;SDS011;48550;40.588;49.684;2023-02-28T01:23:46;86.85;;;27.67;;
60370;SDS011;48550;40.588;49.684;2023-02-28T01:26:16;91.95;;;26.58;;
60370;SDS011;48550;40.588;49.684;2023-02-28T01:28:44;92.38;;;26.75;;
60370;SDS011;48550;40.588;49.684;2023-02-28T01:31:10;90.82;;;26.58;;
60370;SDS011;48550;40.588;49.684;2023-02-28T01:33:36;93.45;;;25.77;;
60370;SDS011;48550;40.588;49.684;2023-02-28T01:36:06;95.20;;;27.35;;
60370;SDS011;48550;40.588;49.684;2023-02-28T01:38:42;96.78;;;26.50;;
60370;SDS011;48550;40.588;49.684;2023-02-28T01:41:09;96.90;;;27.27;;
60370;SDS011;48550;40.588;49.684;2023-02-28T01:46:09;94.90;;;27.23;;
60370;SDS011;48550;40.588;49.684;2023-02-28T01:48:37;98.68;;;27.13;;
60370;SDS011;48550;40.588;49.684;2023-02-28T01:51:18;99.07;;;27.93;;
60370;SDS011;48550;40.588;49.684;2023-02-28T01:53:49;89.72;;;23.75;;
60370;SDS011;48550;40.588;49.684;2023-02-28T01:56:19;100.60;;;27.05;;
60370;SDS011;48550;40.588;49.684;2023-02-28T01:58:49;92.32;;;27.17;;
60370;SDS011;48550;40.588;49.684;2023-02-28T02:01:17;87.75;;;26.33;;
60370;SDS011;48550;40.588;49.684;2023-02-28T02:03:51;75.68;;;24.00;;
60370;SDS011;48550;40.588;49.684;2023-02-28T02:06:23;83.20;;;25.73;;
60370;SDS011;48550;40.588;49.684;2023-02-28T02:08:52;79.32;;;25.02;;
60370;SDS011;48550;40.588;49.684;2023-02-28T02:11:19;93.88;;;25.77;;
60370;SDS011;48550;40.588;49.684;2023-02-28T02:22:37;89.55;;;24.90;;
60370;SDS011;48550;40.588;49.684;2023-02-28T02:25:22;81.55;;;24.15;;
60370;SDS011;48550;40.588;49.684;2023-02-28T02:28:13;82.95;;;24.85;;
60370;SDS011;48550;40.588;49.684;2023-02-28T02:36:33;65.43;;;23.10;;
60370;SDS011;48550;40.588;49.684;2023-02-28T02:41:54;74.95;;;24.90;;
60370;SDS011;48550;40.588;49.684;2023-02-28T02:47:27;69.20;;;21.83;;
60370;SDS011;48550;40.588;49.684;2023-02-28T02:49:57;70.55;;;23.48;;
60370;SDS011;48550;40.588;49.684;2023-02-28T02:52:29;73.40;;;23.90;;
60370;SDS011;48550;40.588;49.684;2023-02-28T02:55:02;70.18;;;23.73;;
60370;SDS011;48550;40.588;49.684;2023-02-28T02:57:32;63.35;;;22.55;;
60370;SDS011;48550;40.588;49.684;2023-02-28T03:00:03;67.18;;;22.90;;
60370;SDS011;48550;40.588;49.684;2023-02-28T03:02:33;70.30;;;22.58;;
60370;SDS011;48550;40.588;49.684;2023-02-28T03:05:03;55.80;;;21.10;;
60370;SDS011;48550;40.588;49.684;2023-02-28T03:07:33;74.90;;;32.53;;
60370;SDS011;48550;40.588;49.684;2023-02-28T03:09:59;64.57;;;22.45;;
60370;SDS011;48550;40.588;49.684;2023-02-28T03:12:32;54.47;;;20.92;;
60370;SDS011;48550;40.588;49.684;2023-02-28T03:25:52;50.45;;;19.17;;
60370;SDS011;48550;40.588;49.684;2023-02-28T03:33:37;52.47;;;18.52;;
60370;SDS011;48550;40.588;49.684;2023-02-28T03:36:09;56.65;;;20.30;;
60370;SDS011;48550;40.588;49.684;2023-02-28T03:38:46;52.13;;;19.00;;
60370;SDS011;48550;40.588;49.684;2023-02-28T03:41:25;57.65;;;20.45;;
60370;SDS011;48550;40.588;49.684;2023-02-28T03:43:59;43.83;;;18.75;;
60370;SDS011;48550;40.588;49.684;2023-02-28T03:46:31;65.78;;;24.02;;
60370;SDS011;48550;40.588;49.684;2023-02-28T03:49:11;71.23;;;25.20;;
60370;SDS011;48550;40.588;49.684;2023-02-28T03:51:49;80.82;;;27.17;;
60370;SDS011;48550;40.588;49.684;2023-02-28T03:54:18;73.95;;;24.88;;
60370;SDS011;48550;40.588;49.684;2023-02-28T04:00:03;71.00;;;24.60;;
60370;SDS011;48550;40.588;49.684;2023-02-28T04:02:33;80.93;;;25.92;;
60370;SDS011;48550;40.588;49.684;2023-02-28T04:05:00;68.55;;;24.17;;
60370;SDS011;48550;40.588;49.684;2023-02-28T04:07:28;80.03;;;25.48;;
60370;SDS011;48550;40.588;49.684;2023-02-28T04:09:55;80.65;;;25.33;;
60370;SDS011;48550;40.588;49.684;2023-02-28T04:12:21;69.35;;;24.63;;
60370;SDS011;48550;40.588;49.684;2023-02-28T04:14:48;71.43;;;26.17;;
60370;SDS011;48550;40.588;49.684;2023-02-28T04:17:14;76.38;;;25.13;;
60370;SDS011;48550;40.588;49.684;2023-02-28T04:19:41;76.30;;;25.50;;
60370;SDS011;48550;40.588;49.684;2023-02-28T04:22:08;78.55;;;24.58;;
60370;SDS011;48550;40.588;49.684;2023-02-28T04:24:35;85.85;;;26.13;;
60370;SDS011;48550;40.588;49.684;2023-02-28T04:27:01;76.50;;;24.85;;
60370;SDS011;48550;40.588;49.684;2023-02-28T04:29:28;80.30;;;24.23;;
60370;SDS011;48550;40.588;49.684;2023-02-28T04:31:55;71.15;;;24.95;;
60370;SDS011;48550;40.588;49.684;2023-02-28T04:34:29;65.43;;;21.80;;
60370;SDS011;48550;40.588;49.684;2023-02-28T04:36:56;73.60;;;23.20;;
60370;SDS011;48550;40.588;49.684;2023-02-28T04:39:22;61.88;;;20.70;;
60370;SDS011;48550;40.588;49.684;2023-02-28T04:41:49;60.45;;;23.65;;
60370;SDS011;48550;40.588;49.684;2023-02-28T04:44:16;49.90;;;18.60;;
60370;SDS011;48550;40.588;49.684;2023-02-28T04:46:42;57.78;;;19.20;;
60370;SDS011;48550;40.588;49.684;2023-02-28T04:49:09;58.45;;;20.13;;
60370;SDS011;48550;40.588;49.684;2023-02-28T04:51:36;50.97;;;19.15;;
60370;SDS011;48550;40.588;49.684;2023-02-28T04:54:02;53.92;;;21.35;;
60370;SDS011;48550;40.588;49.684;2023-02-28T04:56:28;56.35;;;21.88;;
60370;SDS011;48550;40.588;49.684;2023-02-28T04:58:53;52.55;;;18.50;;
60370;SDS011;48550;40.588;49.684;2023-02-28T05:01:24;48.83;;;17.40;;
60370;SDS011;48550;40.588;49.684;2023-02-28T05:03:53;43.10;;;16.30;;
60370;SDS011;48550;40.588;49.684;2023-02-28T05:06:20;48.75;;;18.83;;
60370;SDS011;48550;40.588;49.684;2023-02-28T05:08:47;40.15;;;17.02;;
60370;SDS011;48550;40.588;49.684;2023-02-28T05:11:17;47.10;;;18.90;;
60370;SDS011;48550;40.588;49.684;2023-02-28T05:13:44;59.67;;;19.08;;
60370;SDS011;48550;40.588;49.684;2023-02-28T05:16:11;43.65;;;16.77;;
60370;SDS011;48550;40.588;49.684;2023-02-28T05:18:37;47.38;;;16.05;;
60370;SDS011;48550;40.588;49.684;2023-02-28T05:21:03;37.20;;;14.38;;
60370;SDS011;48550;40.588;49.684;2023-02-28T05:23:29;46.20;;;17.20;;
60370;SDS011;48550;40.588;49.684;2023-02-28T05:25:55;32.25;;;13.60;;
60370;SDS011;48550;40.588;49.684;2023-02-28T05:28:21;36.08;;;14.60;;
60370;SDS011;48550;40.588;49.684;2023-02-28T05:30:47;29.55;;;12.55;;
60370;SDS011;48550;40.588;49.684;2023-02-28T05:33:13;40.42;;;13.27;;
60370;SDS011;48550;40.588;49.684;2023-02-28T05:35:39;36.13;;;14.20;;
60370;SDS011;48550;40.588;49.684;2023-02-28T05:38:06;39.40;;;14.27;;
60370;SDS011;48550;40.588;49.684;2023-02-28T05:40:32;39.75;;;14.40;;
60370;SDS011;48550;40.588;49.684;2023-02-28T05:42:57;33.08;;;13.32;;
60370;SDS011;48550;40.588;49.684;2023-02-28T05:45:23;30.65;;;12.45;;
60370;SDS011;48550;40.588;49.684;2023-02-28T05:47:52;28.52;;;11.98;;
60370;SDS011;48550;40.588;49.684;2023-02-28T05:50:18;35.83;;;14.40;;
60370;SDS011;48550;40.588;49.684;2023-02-28T05:52:48;32.40;;;14.35;;
60370;SDS011;48550;40.588;49.684;2023-02-28T05:55:17;31.15;;;14.52;;
60370;SDS011;48550;40.588;49.684;2023-02-28T05:57:43;37.92;;;15.60;;
60370;SDS011;48550;40.588;49.684;2023-02-28T06:00:09;40.35;;;14.45;;
60370;SDS011;48550;40.588;49.684;2023-02-28T06:02:35;37.28;;;15.00;;
60370;SDS011;48550;40.588;49.684;2023-02-28T06:05:01;25.27;;;12.48;;
60370;SDS011;48550;40.588;49.684;2023-02-28T06:07:27;27.00;;;11.68;;
60370;SDS011;48550;40.588;49.684;2023-02-28T06:09:52;31.08;;;12.70;;
60370;SDS011;48550;40.588;49.684;2023-02-28T06:12:18;32.22;;;13.52;;
60370;SDS011;48550;40.588;49.684;2023-02-28T06:14:44;29.27;;;11.68;;
60370;SDS011;48550;40.588;49.684;2023-02-28T06:17:09;37.08;;;17.05;;
60370;SDS011;48550;40.588;49.684;2023-02-28T06:19:36;36.50;;;15.25;;
60370;SDS011;48550;40.588;49.684;2023-02-28T06:22:04;37.97;;;15.43;;
60370;SDS011;48550;40.588;49.684;2023-02-28T06:24:31;29.02;;;13.00;;
60370;SDS011;48550;40.588;49.684;2023-02-28T06:26:57;29.80;;;11.82;;
60370;SDS011;48550;40.588;49.684;2023-02-28T06:29:30;27.10;;;11.43;;
60370;SDS011;48550;40.588;49.684;2023-02-28T06:31:56;24.00;;;9.88;;
60370;SDS011;48550;40.588;49.684;2023-02-28T06:34:22;27.75;;;13.05;;
60370;SDS011;48550;40.588;49.684;2023-02-28T06:36:49;28.42;;;12.80;;
60370;SDS011;48550;40.588;49.684;2023-02-28T06:39:16;29.13;;;12.57;;
60370;SDS011;48550;40.588;49.684;2023-02-28T06:41:42;25.58;;;11.95;;
60370;SDS011;48550;40.588;49.684;2023-02-28T06:44:16;26.33;;;12.18;;
60370;SDS011;48550;40.588;49.684;2023-02-28T06:46:43;31.15;;;13.88;;
60370;SDS011;48550;40.588;49.684;2023-02-28T06:49:10;32.70;;;14.65;;
60370;SDS011;48550;40.588;49.684;2023-02-28T06:51:37;35.65;;;15.85;;
60370;SDS011;48550;40.588;49.684;2023-02-28T06:54:06;35.63;;;13.73;;
60370;SDS011;48550;40.588;49.684;2023-02-28T06:56:36;27.48;;;13.93;;
60370;SDS011;48550;40.588;49.684;2023-02-28T06:59:02;33.17;;;13.52;;
60370;SDS011;48550;40.588;49.684;2023-02-28T07:01:28;30.38;;;13.73;;
60370;SDS011;48550;40.588;49.684;2023-02-28T07:03:56;48.60;;;22.42;;
60370;SDS011;48550;40.588;49.684;2023-02-28T07:06:23;51.20;;;21.27;;
60370;SDS011;48550;40.588;49.684;2023-02-28T07:08:50;36.88;;;15.70;;
60370;SDS011;48550;40.588;49.684;2023-02-28T07:11:18;34.10;;;14.40;;
60370;SDS011;48550;40.588;49.684;2023-02-28T07:13:44;33.15;;;15.85;;
60370;SDS011;48550;40.588;49.684;2023-02-28T07:16:11;30.70;;;13.15;;
60370;SDS011;48550;40.588;49.684;2023-02-28T07:18:37;31.90;;;12.73;;
60370;SDS011;48550;40.588;49.684;2023-02-28T07:21:04;29.17;;;14.38;;
60370;SDS011;48550;40.588;49.684;2023-02-28T07:23:31;37.70;;;16.20;;
60370;SDS011;48550;40.588;49.684;2023-02-28T07:25:58;41.53;;;18.52;;
60370;SDS011;48550;40.588;49.684;2023-02-28T07:28:24;41.63;;;18.88;;
60370;SDS011;48550;40.588;49.684;2023-02-28T07:30:50;49.25;;;21.13;;
60370;SDS011;48550;40.588;49.684;2023-02-28T07:33:16;51.88;;;22.95;;
60370;SDS011;48550;40.588;49.684;2023-02-28T07:35:42;46.38;;;19.20;;
60370;SDS011;48550;40.588;49.684;2023-02-28T07:38:07;37.20;;;16.20;;
60370;SDS011;48550;40.588;49.684;2023-02-28T07:40:34;29.52;;;13.65;;
60370;SDS011;48550;40.588;49.684;2023-02-28T07:43:00;27.55;;;13.25;;
60370;SDS011;48550;40.588;49.684;2023-02-28T07:45:27;30.88;;;14.38;;
60370;SDS011;48550;40.588;49.684;2023-02-28T07:47:53;29.10;;;12.55;;
60370;SDS011;48550;40.588;49.684;2023-02-28T07:50:19;28.80;;;12.25;;
60370;SDS011;48550;40.588;49.684;2023-02-28T07:52:45;30.35;;;13.52;;
60370;SDS011;48550;40.588;49.684;2023-02-28T07:55:11;28.75;;;12.65;;
60370;SDS011;48550;40.588;49.684;2023-02-28T07:57:37;31.25;;;14.63;;
60370;SDS011;48550;40.588;49.684;2023-02-28T08:00:03;27.70;;;12.77;;
60370;SDS011;48550;40.588;49.684;2023-02-28T08:02:30;27.75;;;12.68;;
60370;SDS011;48550;40.588;49.684;2023-02-28T08:04:56;34.08;;;13.13;;
60370;SDS011;48550;40.588;49.684;2023-02-28T08:07:22;34.85;;;15.70;;
60370;SDS011;48550;40.588;49.684;2023-02-28T08:09:48;32.30;;;13.30;;
60370;SDS011;48550;40.588;49.684;2023-02-28T08:12:13;28.52;;;12.77;;
60370;SDS011;48550;40.588;49.684;2023-02-28T08:14:39;26.80;;;13.10;;
60370;SDS011;48550;40.588;49.684;2023-02-28T08:17:05;28.02;;;12.20;;
60370;SDS011;48550;40.588;49.684;2023-02-28T08:19:31;31.67;;;14.60;;
60370;SDS011;48550;40.588;49.684;2023-02-28T08:21:57;34.50;;;14.65;;
60370;SDS011;48550;40.588;49.684;2023-02-28T08:24:23;31.08;;;14.38;;
60370;SDS011;48550;40.588;49.684;2023-02-28T08:26:49;28.38;;;12.95;;
60370;SDS011;48550;40.588;49.684;2023-02-28T08:29:15;30.15;;;12.60;;
60370;SDS011;48550;40.588;49.684;2023-02-28T08:31:41;28.30;;;12.25;;
60370;SDS011;48550;40.588;49.684;2023-02-28T08:34:08;32.30;;;14.63;;
60370;SDS011;48550;40.588;49.684;2023-02-28T08:36:35;29.35;;;13.15;;
60370;SDS011;48550;40.588;49.684;2023-02-28T08:39:02;29.52;;;13.55;;
60370;SDS011;48550;40.588;49.684;2023-02-28T08:41:28;23.30;;;12.18;;
60370;SDS011;48550;40.588;49.684;2023-02-28T08:43:53;22.27;;;11.05;;
60370;SDS011;48550;40.588;49.684;2023-02-28T08:46:19;25.35;;;12.32;;
60370;SDS011;48550;40.588;49.684;2023-02-28T08:48:45;25.98;;;11.82;;
60370;SDS011;48550;40.588;49.684;2023-02-28T08:51:15;26.98;;;12.20;;
60370;SDS011;48550;40.588;49.684;2023-02-28T08:53:43;30.17;;;12.25;;
60370;SDS011;48550;40.588;49.684;2023-02-28T08:56:13;26.98;;;11.70;;
60370;SDS011;48550;40.588;49.684;2023-02-28T08:58:41;32.20;;;12.13;;
60370;SDS011;48550;40.588;49.684;2023-02-28T09:01:11;29.88;;;13.50;;
60370;SDS011;48550;40.588;49.684;2023-02-28T09:03:39;24.80;;;11.75;;
60370;SDS011;48550;40.588;49.684;2023-02-28T09:06:06;30.35;;;12.60;;
60370;SDS011;48550;40.588;49.684;2023-02-28T09:08:32;28.70;;;13.27;;
60370;SDS011;48550;40.588;49.684;2023-02-28T09:10:58;29.00;;;12.05;;
60370;SDS011;48550;40.588;49.684;2023-02-28T09:13:25;26.70;;;11.70;;
60370;SDS011;48550;40.588;49.684;2023-02-28T09:15:51;28.70;;;12.18;;
60370;SDS011;48550;40.588;49.684;2023-02-28T09:18:18;27.25;;;11.38;;
60370;SDS011;48550;40.588;49.684;2023-02-28T09:20:44;29.75;;;12.18;;
60370;SDS011;48550;40.588;49.684;2023-02-28T09:23:10;26.40;;;12.15;;
60370;SDS011;48550;40.588;49.684;2023-02-28T09:25:45;23.25;;;10.90;;
60370;SDS011;48550;40.588;49.684;2023-02-28T09:28:15;26.40;;;10.73;;
60370;SDS011;48550;40.588;49.684;2023-02-28T09:30:42;27.10;;;11.68;;
60370;SDS011;48550;40.588;49.684;2023-02-28T09:33:12;23.58;;;11.20;;
60370;SDS011;48550;40.588;49.684;2023-02-28T09:35:38;25.00;;;10.38;;
60370;SDS011;48550;40.588;49.684;2023-02-28T09:38:05;24.45;;;9.77;;
60370;SDS011;48550;40.588;49.684;2023-02-28T09:40:34;22.80;;;10.40;;
60370;SDS011;48550;40.588;49.684;2023-02-28T09:43:03;22.08;;;10.07;;
60370;SDS011;48550;40.588;49.684;2023-02-28T09:45:35;18.30;;;8.45;;
60370;SDS011;48550;40.588;49.684;2023-02-28T09:48:10;21.38;;;10.57;;
60370;SDS011;48550;40.588;49.684;2023-02-28T09:50:51;20.05;;;9.80;;
60370;SDS011;48550;40.588;49.684;2023-02-28T09:56:14;25.58;;;11.50;;
60370;SDS011;48550;40.588;49.684;2023-02-28T10:01:21;21.83;;;10.27;;
60370;SDS011;48550;40.588;49.684;2023-02-28T10:06:54;18.02;;;9.40;;
60370;SDS011;48550;40.588;49.684;2023-02-28T10:09:24;20.85;;;9.30;;
60370;SDS011;48550;40.588;49.684;2023-02-28T10:11:56;20.70;;;8.60;;
60370;SDS011;48550;40.588;49.684;2023-02-28T10:14:26;20.33;;;8.90;;
60370;SDS011;48550;40.588;49.684;2023-02-28T10:16:56;22.20;;;9.13;;
60370;SDS011;48550;40.588;49.684;2023-02-28T10:19:26;22.85;;;8.90;;
60370;SDS011;48550;40.588;49.684;2023-02-28T10:22:02;18.17;;;8.90;;
60370;SDS011;48550;40.588;49.684;2023-02-28T10:24:42;18.30;;;8.88;;
60370;SDS011;48550;40.588;49.684;2023-02-28T10:27:13;16.75;;;8.48;;
60370;SDS011;48550;40.588;49.684;2023-02-28T10:29:40;20.40;;;9.30;;
60370;SDS011;48550;40.588;49.684;2023-02-28T10:32:08;24.98;;;9.38;;
60370;SDS011;48550;40.588;49.684;2023-02-28T10:34:39;21.90;;;9.15;;
60370;SDS011;48550;40.588;49.684;2023-02-28T10:37:05;18.20;;;8.35;;
60370;SDS011;48550;40.588;49.684;2023-02-28T10:39:36;25.50;;;11.10;;
60370;SDS011;48550;40.588;49.684;2023-02-28T10:42:23;19.08;;;8.65;;
60370;SDS011;48550;40.588;49.684;2023-02-28T10:45:07;20.63;;;11.07;;
60370;SDS011;48550;40.588;49.684;2023-02-28T10:47:36;18.77;;;8.93;;
60370;SDS011;48550;40.588;49.684;2023-02-28T10:51:04;21.88;;;10.23;;
60370;SDS011;48550;40.588;49.684;2023-02-28T11:01:46;19.50;;;9.45;;
60370;SDS011;48550;40.588;49.684;2023-02-28T11:07:06;22.80;;;10.43;;
60370;SDS011;48550;40.588;49.684;2023-02-28T11:09:44;39.53;;;17.48;;
60370;SDS011;48550;40.588;49.684;2023-02-28T11:12:20;20.70;;;9.45;;
60370;SDS011;48550;40.588;49.684;2023-02-28T11:14:56;21.30;;;10.07;;
60370;SDS011;48550;40.588;49.684;2023-02-28T11:17:25;20.30;;;9.73;;
60370;SDS011;48550;40.588;49.684;2023-02-28T11:19:54;22.80;;;10.48;;
60370;SDS011;48550;40.588;49.684;2023-02-28T11:22:23;19.92;;;9.32;;
60370;SDS011;48550;40.588;49.684;2023-02-28T11:24:54;16.35;;;8.13;;
60370;SDS011;48550;40.588;49.684;2023-02-28T11:29:54;17.35;;;8.32;;
60370;SDS011;48550;40.588;49.684;2023-02-28T11:32:21;17.15;;;8.57;;
60370;SDS011;48550;40.588;49.684;2023-02-28T11:34:59;19.85;;;8.63;;
60370;SDS011;48550;40.588;49.684;2023-02-28T11:37:26;15.55;;;7.32;;
60370;SDS011;48550;40.588;49.684;2023-02-28T11:39:53;14.18;;;7.57;;
60370;SDS011;48550;40.588;49.684;2023-02-28T11:55:54;15.60;;;7.97;;
60370;SDS011;48550;40.588;49.684;2023-02-28T11:58:41;14.98;;;8.02;;
60370;SDS011;48550;40.588;49.684;2023-02-28T12:01:20;13.38;;;7.32;;
60370;SDS011;48550;40.588;49.684;2023-02-28T12:07:19;13.30;;;6.97;;
60370;SDS011;48550;40.588;49.684;2023-02-28T12:09:56;15.93;;;8.35;;
60370;SDS011;48550;40.588;49.684;2023-02-28T12:12:57;17.15;;;6.90;;
60370;SDS011;48550;40.588;49.684;2023-02-28T12:15:41;15.18;;;8.02;;
60370;SDS011;48550;40.588;49.684;2023-02-28T12:21:26;14.02;;;7.88;;
60370;SDS011;48550;40.588;49.684;2023-02-28T12:27:11;14.02;;;6.80;;
60370;SDS011;48550;40.588;49.684;2023-02-28T12:32:15;11.77;;;6.82;;
60370;SDS011;48550;40.588;49.684;2023-02-28T12:34:52;19.63;;;7.45;;
60370;SDS011;48550;40.588;49.684;2023-02-28T12:37:36;12.00;;;6.10;;
60370;SDS011;48550;40.588;49.684;2023-02-28T12:40:19;13.57;;;6.85;;
60370;SDS011;48550;40.588;49.684;2023-02-28T12:42:58;14.65;;;6.60;;
60370;SDS011;48550;40.588;49.684;2023-02-28T12:45:40;14.43;;;7.40;;
60370;SDS011;48550;40.588;49.684;2023-02-28T12:48:19;15.48;;;7.38;;
60370;SDS011;48550;40.588;49.684;2023-02-28T12:50:51;16.60;;;7.25;;
60370;SDS011;48550;40.588;49.684;2023-02-28T12:53:25;14.07;;;7.78;;
60370;SDS011;48550;40.588;49.684;2023-02-28T12:58:58;13.70;;;6.43;;
60370;SDS011;48550;40.588;49.684;2023-02-28T13:01:51;16.05;;;7.95;;
60370;SDS011;48550;40.588;49.684;2023-02-28T13:08:01;13.45;;;7.30;;
60370;SDS011;48550;40.588;49.684;2023-02-28T13:10:44;14.60;;;7.18;;
60370;SDS011;48550;40.588;49.684;2023-02-28T13:13:15;14.23;;;7.85;;
60370;SDS011;48550;40.588;49.684;2023-02-28T13:15:59;21.10;;;8.65;;
60370;SDS011;48550;40.588;49.684;2023-02-28T13:20:56;18.77;;;8.63;;
60370;SDS011;48550;40.588;49.684;2023-02-28T13:23:39;17.73;;;8.02;;
60370;SDS011;48550;40.588;49.684;2023-02-28T13:29:01;22.30;;;9.38;;
60370;SDS011;48550;40.588;49.684;2023-02-28T13:34:41;17.60;;;8.90;;
60370;SDS011;48550;40.588;49.684;2023-02-28T13:45:22;20.88;;;9.10;;
60370;SDS011;48550;40.588;49.684;2023-02-28T13:47:53;23.95;;;9.50;;
60370;SDS011;48550;40.588;49.684;2023-02-28T13:50:35;19.30;;;9.38;;
60370;SDS011;48550;40.588;49.684;2023-02-28T14:01:31;18.90;;;9.57;;
60370;SDS011;48550;40.588;49.684;2023-02-28T14:07:21;16.70;;;8.13;;
60370;SDS011;48550;40.588;49.684;2023-02-28T14:10:01;20.55;;;7.95;;
60370;SDS011;48550;40.588;49.684;2023-02-28T14:20:46;24.45;;;13.07;;
60370;SDS011;48550;40.588;49.684;2023-02-28T14:23:19;31.85;;;16.55;;
60370;SDS011;48550;40.588;49.684;2023-02-28T14:26:07;32.72;;;15.68;;
60370;SDS011;48550;40.588;49.684;2023-02-28T14:31:43;38.15;;;15.77;;
60370;SDS011;48550;40.588;49.684;2023-02-28T14:36:48;27.92;;;13.20;;
60370;SDS011;48550;40.588;49.684;2023-02-28T14:39:16;24.92;;;12.55;;
60370;SDS011;48550;40.588;49.684;2023-02-28T14:41:45;31.08;;;13.98;;
60370;SDS011;48550;40.588;49.684;2023-02-28T14:46:47;20.40;;;11.73;;
60370;SDS011;48550;40.588;49.684;2023-02-28T14:49:18;26.60;;;12.43;;
60370;SDS011;48550;40.588;49.684;2023-02-28T14:51:44;26.05;;;14.77;;
60370;SDS011;48550;40.588;49.684;2023-02-28T14:54:13;32.13;;;12.27;;
60370;SDS011;48550;40.588;49.684;2023-02-28T14:56:41;31.23;;;13.98;;
60370;SDS011;48550;40.588;49.684;2023-02-28T15:02:18;23.95;;;12.43;;
60370;SDS011;48550;40.588;49.684;2023-02-28T15:04:53;23.35;;;11.65;;
60370;SDS011;48550;40.588;49.684;2023-02-28T15:07:23;28.67;;;12.52;;
60370;SDS011;48550;40.588;49.684;2023-02-28T15:10:09;26.20;;;12.13;;
60370;SDS011;48550;40.588;49.684;2023-02-28T15:12:39;22.63;;;11.80;;
60370;SDS011;48550;40.588;49.684;2023-02-28T15:15:06;29.63;;;13.13;;
60370;SDS011;48550;40.588;49.684;2023-02-28T15:17:39;29.27;;;12.57;;
60370;SDS011;48550;40.588;49.684;2023-02-28T15:20:10;32.92;;;11.35;;
60370;SDS011;48550;40.588;49.684;2023-02-28T15:22:38;30.00;;;12.68;;
60370;SDS011;48550;40.588;49.684;2023-02-28T15:25:04;23.83;;;12.77;;
60370;SDS011;48550;40.588;49.684;2023-02-28T15:27:33;35.63;;;13.80;;
60370;SDS011;48550;40.588;49.684;2023-02-28T15:30:05;104.45;;;39.13;;
60370;SDS011;48550;40.588;49.684;2023-02-28T15:32:37;55.55;;;27.13;;
60370;SDS011;48550;40.588;49.684;2023-02-28T15:37:54;83.90;;;29.70;;
60370;SDS011;48550;40.588;49.684;2023-02-28T15:40:37;112.88;;;47.30;;
60370;SDS011;48550;40.588;49.684;2023-02-28T15:43:07;129.02;;;49.83;;
60370;SDS011;48550;40.588;49.684;2023-02-28T15:48:23;94.28;;;40.22;;
60370;SDS011;48550;40.588;49.684;2023-02-28T15:51:36;117.00;;;44.90;;
60370;SDS011;48550;40.588;49.684;2023-02-28T15:53:48;103.75;;;47.97;;
60370;SDS011;48550;40.588;49.684;2023-02-28T15:58:46;120.72;;;49.80;;
60370;SDS011;48550;40.588;49.684;2023-02-28T16:01:20;113.43;;;48.47;;
60370;SDS011;48550;40.588;49.684;2023-02-28T16:03:55;142.70;;;66.53;;
60370;SDS011;48550;40.588;49.684;2023-02-28T16:06:25;139.13;;;65.70;;
60370;SDS011;48550;40.588;49.684;2023-02-28T16:09:11;146.25;;;61.58;;
60370;SDS011;48550;40.588;49.684;2023-02-28T16:11:40;135.63;;;59.83;;
60370;SDS011;48550;40.588;49.684;2023-02-28T16:14:41;156.68;;;68.65;;
60370;SDS011;48550;40.588;49.684;2023-02-28T16:17:04;177.77;;;71.97;;
60370;SDS011;48550;40.588;49.684;2023-02-28T16:19:34;199.10;;;83.07;;
60370;SDS011;48550;40.588;49.684;2023-02-28T16:22:00;224.48;;;85.13;;
60370;SDS011;48550;40.588;49.684;2023-02-28T16:24:26;244.68;;;96.10;;
60370;SDS011;48550;40.588;49.684;2023-02-28T16:26:52;256.35;;;99.32;;
60370;SDS011;48550;40.588;49.684;2023-02-28T16:29:24;250.32;;;100.88;;
60370;SDS011;48550;40.588;49.684;2023-02-28T16:31:56;262.27;;;107.25;;
60370;SDS011;48550;40.588;49.684;2023-02-28T16:34:22;232.85;;;97.00;;
60370;SDS011;48550;40.588;49.684;2023-02-28T16:36:49;250.13;;;105.32;;
60370;SDS011;48550;40.588;49.684;2023-02-28T16:39:16;287.77;;;114.30;;
60370;SDS011;48550;40.588;49.684;2023-02-28T16:41:43;250.25;;;104.00;;
60370;SDS011;48550;40.588;49.684;2023-02-28T16:44:12;295.88;;;115.40;;
60370;SDS011;48550;40.588;49.684;2023-02-28T16:46:55;282.85;;;120.10;;
60370;SDS011;48550;40.588;49.684;2023-02-28T16:49:21;291.92;;;122.97;;
60370;SDS011;48550;40.588;49.684;2023-02-28T16:51:47;290.23;;;120.78;;
60370;SDS011;48550;40.588;49.684;2023-02-28T16:54:13;279.20;;;125.13;;
60370;SDS011;48550;40.588;49.684;2023-02-28T16:56:40;320.50;;;134.85;;